Cozumel, Mexico

8:38 AM EDT on March 23, 2017 (GMT -0400)
MD3338 | | Change Station

Elev 13 ft 20.50 °N, 86.96 °W | Updated 9 minutes ago

Scattered Clouds
Scattered Clouds
71.0 °F
Feels Like 74 °F
N
2.0
Wind Variable Wind from ENE
Gusts 4.0 mph

Today
High -- | Low -- °F
--% Chance of Precip.
Yesterday
High -- | Low -- °F
Precip. -- in
Pressure 30.11 in
Visibility 8.0 miles
Clouds Scattered Clouds 1500 ft
Heat Index 74 °F
Dew Point 62 °F
Humidity 72%
Rainfall in
Snow Depth Not available.
7:48 AM 7:59 PM
Waning Crescent, 23% visible
METAR MMCZ 231145Z 00000KT 8SM SCT015 18/16 A3009 RMK SLP194 5//// 920 8/100 SC
Pressure 30.11 in
Visibility 8.0 miles
Clouds Scattered Clouds 1500 ft
Heat Index 74 °F
Dew Point 62 °F
Humidity 72%
Rainfall in
Snow Depth Not available.
7:48 AM 7:59 PM
Waning Crescent, 23% visible
METAR MMCZ 231145Z 00000KT 8SM SCT015 18/16 A3009 RMK SLP194 5//// 920 8/100 SC

Get Severe Weather Alerts

Thanks for signing up!

Be on the lookout for a verification email in your inbox.

You'll start receiving the daily forecast at 8 AM.

×

10-Day Weather Forecast

No radar image for this location.
×

Almanac

Astronomy

Mar. 23, 2017 Rise Set
Actual Time
Civil Twilight
Nautical Twilight
Astronomical Twilight
Moon
Length of Visible Light
Length of Day
Tomorrow will be .
, % of the Moon is Illuminated

Today's Extremes

Country Highs Country Lows

Community

WunderPhotos

Upload Photos

1,962,540 photos uploaded!

WunderBlog® & News

Nearby

Air Quality

  Air Quality AQ Index Pollutant
Not available.

Snow Depth

Station Depth Elevation

Earthquake Activity

City Distance Mag. Time & Date
Minimum magnitude displayed is 2.5.

Earthquake Activity

City Distance Mag. Time & Date
Minimum magnitude displayed is 2.5.

Coastal Water Temperatures

Place Temperature

Stations

Nearby Weather Stations

Station Location Temp. Windchill Dew Point Humidity Wind Precip. Elev Updated Type